sensor_id;sensor_type;location;lat;lon;timestamp;P1;durP1;ratioP1;P2;durP2;ratioP2
36415;SDS011;22447;44.530;18.620;2024-01-15T00:01:59;389.60;;;171.75;;
36415;SDS011;22447;44.530;18.620;2024-01-15T00:04:25;417.02;;;182.35;;
36415;SDS011;22447;44.530;18.620;2024-01-15T00:06:51;434.05;;;192.57;;
36415;SDS011;22447;44.530;18.620;2024-01-15T00:09:17;402.63;;;177.52;;
36415;SDS011;22447;44.530;18.620;2024-01-15T00:11:42;429.42;;;185.25;;
36415;SDS011;22447;44.530;18.620;2024-01-15T00:14:08;429.10;;;184.63;;
36415;SDS011;22447;44.530;18.620;2024-01-15T00:16:34;465.00;;;199.32;;
36415;SDS011;22447;44.530;18.620;2024-01-15T00:19:00;474.55;;;204.68;;
36415;SDS011;22447;44.530;18.620;2024-01-15T00:21:26;487.52;;;209.68;;
36415;SDS011;22447;44.530;18.620;2024-01-15T00:23:53;474.67;;;203.82;;
36415;SDS011;22447;44.530;18.620;2024-01-15T00:26:19;471.40;;;203.50;;
36415;SDS011;22447;44.530;18.620;2024-01-15T00:28:45;549.60;;;227.75;;
36415;SDS011;22447;44.530;18.620;2024-01-15T00:31:10;515.20;;;215.63;;
36415;SDS011;22447;44.530;18.620;2024-01-15T00:33:36;481.67;;;205.75;;
36415;SDS011;22447;44.530;18.620;2024-01-15T00:36:02;446.20;;;188.85;;
36415;SDS011;22447;44.530;18.620;2024-01-15T00:38:28;501.15;;;204.07;;
36415;SDS011;22447;44.530;18.620;2024-01-15T00:40:54;495.23;;;202.60;;
36415;SDS011;22447;44.530;18.620;2024-01-15T00:43:20;406.95;;;169.40;;
36415;SDS011;22447;44.530;18.620;2024-01-15T00:45:46;374.55;;;164.52;;
36415;SDS011;22447;44.530;18.620;2024-01-15T00:48:12;351.13;;;153.55;;
36415;SDS011;22447;44.530;18.620;2024-01-15T00:50:37;341.90;;;145.85;;
36415;SDS011;22447;44.530;18.620;2024-01-15T00:53:03;341.85;;;152.73;;
36415;SDS011;22447;44.530;18.620;2024-01-15T00:55:29;343.77;;;151.40;;
36415;SDS011;22447;44.530;18.620;2024-01-15T00:57:55;363.58;;;154.35;;
36415;SDS011;22447;44.530;18.620;2024-01-15T01:00:21;360.65;;;155.32;;
36415;SDS011;22447;44.530;18.620;2024-01-15T01:02:47;394.15;;;170.65;;
36415;SDS011;22447;44.530;18.620;2024-01-15T01:05:13;393.50;;;171.57;;
36415;SDS011;22447;44.530;18.620;2024-01-15T01:07:38;385.77;;;164.10;;
36415;SDS011;22447;44.530;18.620;2024-01-15T01:10:04;388.08;;;165.13;;
36415;SDS011;22447;44.530;18.620;2024-01-15T01:12:30;396.30;;;161.07;;
36415;SDS011;22447;44.530;18.620;2024-01-15T01:14:56;379.70;;;160.68;;
36415;SDS011;22447;44.530;18.620;2024-01-15T01:17:22;372.98;;;155.95;;
36415;SDS011;22447;44.530;18.620;2024-01-15T01:19:49;337.70;;;145.50;;
36415;SDS011;22447;44.530;18.620;2024-01-15T01:22:15;339.70;;;142.73;;
36415;SDS011;22447;44.530;18.620;2024-01-15T01:24:41;313.02;;;133.70;;
36415;SDS011;22447;44.530;18.620;2024-01-15T01:27:06;312.25;;;137.65;;
36415;SDS011;22447;44.530;18.620;2024-01-15T01:29:32;308.75;;;137.50;;
36415;SDS011;22447;44.530;18.620;2024-01-15T01:31:58;289.17;;;127.97;;
36415;SDS011;22447;44.530;18.620;2024-01-15T01:34:24;289.55;;;126.03;;
36415;SDS011;22447;44.530;18.620;2024-01-15T01:36:50;277.13;;;121.55;;
36415;SDS011;22447;44.530;18.620;2024-01-15T01:39:16;299.33;;;126.50;;
36415;SDS011;22447;44.530;18.620;2024-01-15T01:41:41;289.02;;;123.95;;
36415;SDS011;22447;44.530;18.620;2024-01-15T01:44:07;273.48;;;122.95;;
36415;SDS011;22447;44.530;18.620;2024-01-15T01:46:33;265.08;;;118.28;;
36415;SDS011;22447;44.530;18.620;2024-01-15T01:49:00;276.60;;;120.78;;
36415;SDS011;22447;44.530;18.620;2024-01-15T01:51:30;281.63;;;122.97;;
36415;SDS011;22447;44.530;18.620;2024-01-15T01:53:56;283.75;;;120.43;;
36415;SDS011;22447;44.530;18.620;2024-01-15T01:56:22;297.48;;;128.68;;
36415;SDS011;22447;44.530;18.620;2024-01-15T01:58:48;282.60;;;123.00;;
36415;SDS011;22447;44.530;18.620;2024-01-15T02:01:15;249.60;;;112.45;;
36415;SDS011;22447;44.530;18.620;2024-01-15T02:03:41;247.57;;;111.35;;
36415;SDS011;22447;44.530;18.620;2024-01-15T02:06:08;234.10;;;102.78;;
36415;SDS011;22447;44.530;18.620;2024-01-15T02:08:34;231.30;;;104.00;;
36415;SDS011;22447;44.530;18.620;2024-01-15T02:11:00;241.20;;;107.68;;
36415;SDS011;22447;44.530;18.620;2024-01-15T02:13:26;228.20;;;104.72;;
36415;SDS011;22447;44.530;18.620;2024-01-15T02:15:52;219.75;;;99.60;;
36415;SDS011;22447;44.530;18.620;2024-01-15T02:18:17;223.07;;;103.93;;
36415;SDS011;22447;44.530;18.620;2024-01-15T02:20:43;217.75;;;96.72;;
36415;SDS011;22447;44.530;18.620;2024-01-15T02:23:10;197.43;;;89.40;;
36415;SDS011;22447;44.530;18.620;2024-01-15T02:25:45;195.65;;;89.72;;
36415;SDS011;22447;44.530;18.620;2024-01-15T02:28:12;197.50;;;86.90;;
36415;SDS011;22447;44.530;18.620;2024-01-15T02:30:40;194.73;;;89.63;;
36415;SDS011;22447;44.530;18.620;2024-01-15T02:33:07;187.70;;;84.65;;
36415;SDS011;22447;44.530;18.620;2024-01-15T02:35:34;192.10;;;87.70;;
36415;SDS011;22447;44.530;18.620;2024-01-15T02:38:03;197.60;;;90.13;;
36415;SDS011;22447;44.530;18.620;2024-01-15T02:40:30;190.32;;;88.47;;
36415;SDS011;22447;44.530;18.620;2024-01-15T02:42:56;186.75;;;85.13;;
36415;SDS011;22447;44.530;18.620;2024-01-15T02:45:22;192.90;;;87.43;;
36415;SDS011;22447;44.530;18.620;2024-01-15T02:47:48;197.13;;;84.40;;
36415;SDS011;22447;44.530;18.620;2024-01-15T02:50:15;175.65;;;78.10;;
36415;SDS011;22447;44.530;18.620;2024-01-15T02:52:43;168.07;;;80.18;;
36415;SDS011;22447;44.530;18.620;2024-01-15T02:55:09;164.20;;;76.95;;
36415;SDS011;22447;44.530;18.620;2024-01-15T02:57:35;162.82;;;75.57;;
36415;SDS011;22447;44.530;18.620;2024-01-15T03:00:01;161.85;;;73.82;;
36415;SDS011;22447;44.530;18.620;2024-01-15T03:02:28;163.95;;;76.20;;
36415;SDS011;22447;44.530;18.620;2024-01-15T03:04:57;162.45;;;70.70;;
36415;SDS011;22447;44.530;18.620;2024-01-15T03:07:22;164.75;;;74.53;;
36415;SDS011;22447;44.530;18.620;2024-01-15T03:09:48;162.77;;;72.90;;
36415;SDS011;22447;44.530;18.620;2024-01-15T03:12:15;161.52;;;72.35;;
36415;SDS011;22447;44.530;18.620;2024-01-15T03:14:41;145.52;;;67.75;;
36415;SDS011;22447;44.530;18.620;2024-01-15T03:17:07;159.27;;;72.93;;
36415;SDS011;22447;44.530;18.620;2024-01-15T03:19:35;166.20;;;72.35;;
36415;SDS011;22447;44.530;18.620;2024-01-15T03:22:01;162.18;;;75.00;;
36415;SDS011;22447;44.530;18.620;2024-01-15T03:24:28;147.63;;;69.85;;
36415;SDS011;22447;44.530;18.620;2024-01-15T03:26:55;144.73;;;70.45;;
36415;SDS011;22447;44.530;18.620;2024-01-15T03:29:20;148.65;;;69.72;;
36415;SDS011;22447;44.530;18.620;2024-01-15T03:31:47;145.63;;;68.45;;
36415;SDS011;22447;44.530;18.620;2024-01-15T03:34:12;150.98;;;70.50;;
36415;SDS011;22447;44.530;18.620;2024-01-15T03:36:38;144.63;;;67.63;;
36415;SDS011;22447;44.530;18.620;2024-01-15T03:39:04;153.43;;;71.60;;
36415;SDS011;22447;44.530;18.620;2024-01-15T03:41:30;148.85;;;72.07;;
36415;SDS011;22447;44.530;18.620;2024-01-15T03:43:56;148.77;;;68.53;;
36415;SDS011;22447;44.530;18.620;2024-01-15T03:46:21;143.90;;;68.05;;
36415;SDS011;22447;44.530;18.620;2024-01-15T03:48:47;150.93;;;68.30;;
36415;SDS011;22447;44.530;18.620;2024-01-15T03:51:15;150.95;;;68.50;;
36415;SDS011;22447;44.530;18.620;2024-01-15T03:53:42;151.13;;;68.93;;
36415;SDS011;22447;44.530;18.620;2024-01-15T03:56:08;156.98;;;71.97;;
36415;SDS011;22447;44.530;18.620;2024-01-15T03:58:33;150.70;;;70.57;;
36415;SDS011;22447;44.530;18.620;2024-01-15T04:00:59;148.75;;;69.72;;
36415;SDS011;22447;44.530;18.620;2024-01-15T04:03:25;151.82;;;71.25;;
36415;SDS011;22447;44.530;18.620;2024-01-15T04:05:51;152.30;;;73.13;;
36415;SDS011;22447;44.530;18.620;2024-01-15T04:08:17;204.98;;;91.47;;
36415;SDS011;22447;44.530;18.620;2024-01-15T04:10:42;225.60;;;102.70;;
36415;SDS011;22447;44.530;18.620;2024-01-15T04:13:08;216.70;;;100.40;;
36415;SDS011;22447;44.530;18.620;2024-01-15T04:15:34;199.23;;;87.85;;
36415;SDS011;22447;44.530;18.620;2024-01-15T04:18:01;208.73;;;92.15;;
36415;SDS011;22447;44.530;18.620;2024-01-15T04:20:28;245.20;;;105.45;;
36415;SDS011;22447;44.530;18.620;2024-01-15T04:22:53;197.13;;;87.45;;
36415;SDS011;22447;44.530;18.620;2024-01-15T04:25:19;188.50;;;79.05;;
36415;SDS011;22447;44.530;18.620;2024-01-15T04:27:45;171.18;;;71.85;;
36415;SDS011;22447;44.530;18.620;2024-01-15T04:30:11;160.07;;;70.47;;
36415;SDS011;22447;44.530;18.620;2024-01-15T04:32:37;145.73;;;65.00;;
36415;SDS011;22447;44.530;18.620;2024-01-15T04:35:03;123.78;;;57.60;;
36415;SDS011;22447;44.530;18.620;2024-01-15T04:37:29;130.25;;;56.25;;
36415;SDS011;22447;44.530;18.620;2024-01-15T04:39:55;124.78;;;57.78;;
36415;SDS011;22447;44.530;18.620;2024-01-15T04:42:22;122.93;;;56.03;;
36415;SDS011;22447;44.530;18.620;2024-01-15T04:44:48;112.85;;;52.10;;
36415;SDS011;22447;44.530;18.620;2024-01-15T04:47:15;112.57;;;53.38;;
36415;SDS011;22447;44.530;18.620;2024-01-15T04:49:40;111.78;;;56.05;;
36415;SDS011;22447;44.530;18.620;2024-01-15T04:52:06;108.32;;;50.65;;
36415;SDS011;22447;44.530;18.620;2024-01-15T04:54:35;113.90;;;52.88;;
36415;SDS011;22447;44.530;18.620;2024-01-15T04:57:01;108.80;;;52.67;;
36415;SDS011;22447;44.530;18.620;2024-01-15T04:59:28;110.97;;;52.03;;
36415;SDS011;22447;44.530;18.620;2024-01-15T05:01:54;113.72;;;54.53;;
36415;SDS011;22447;44.530;18.620;2024-01-15T05:04:20;121.10;;;57.75;;
36415;SDS011;22447;44.530;18.620;2024-01-15T05:06:46;118.50;;;55.55;;
36415;SDS011;22447;44.530;18.620;2024-01-15T05:09:12;127.78;;;58.85;;
36415;SDS011;22447;44.530;18.620;2024-01-15T05:11:38;164.15;;;72.65;;
36415;SDS011;22447;44.530;18.620;2024-01-15T05:14:04;151.65;;;68.63;;
36415;SDS011;22447;44.530;18.620;2024-01-15T05:16:30;171.48;;;76.38;;
36415;SDS011;22447;44.530;18.620;2024-01-15T05:18:56;137.75;;;64.35;;
36415;SDS011;22447;44.530;18.620;2024-01-15T05:21:22;140.88;;;66.57;;
36415;SDS011;22447;44.530;18.620;2024-01-15T05:23:48;146.35;;;65.72;;
36415;SDS011;22447;44.530;18.620;2024-01-15T05:26:13;157.27;;;69.90;;
36415;SDS011;22447;44.530;18.620;2024-01-15T05:28:42;147.23;;;67.60;;
36415;SDS011;22447;44.530;18.620;2024-01-15T05:31:08;144.85;;;66.75;;
36415;SDS011;22447;44.530;18.620;2024-01-15T05:33:34;146.73;;;66.40;;
36415;SDS011;22447;44.530;18.620;2024-01-15T05:36:00;160.25;;;75.57;;
36415;SDS011;22447;44.530;18.620;2024-01-15T05:38:27;158.18;;;75.38;;
36415;SDS011;22447;44.530;18.620;2024-01-15T05:40:53;149.07;;;69.32;;
36415;SDS011;22447;44.530;18.620;2024-01-15T05:43:19;203.07;;;89.68;;
36415;SDS011;22447;44.530;18.620;2024-01-15T05:45:44;124.70;;;60.13;;
36415;SDS011;22447;44.530;18.620;2024-01-15T05:48:11;124.40;;;60.10;;
36415;SDS011;22447;44.530;18.620;2024-01-15T05:50:37;128.25;;;59.80;;
36415;SDS011;22447;44.530;18.620;2024-01-15T05:53:03;158.13;;;75.57;;
36415;SDS011;22447;44.530;18.620;2024-01-15T05:55:29;174.73;;;79.70;;
36415;SDS011;22447;44.530;18.620;2024-01-15T05:57:55;153.45;;;72.63;;
36415;SDS011;22447;44.530;18.620;2024-01-15T06:00:21;144.32;;;68.15;;
36415;SDS011;22447;44.530;18.620;2024-01-15T06:02:47;121.97;;;60.10;;
36415;SDS011;22447;44.530;18.620;2024-01-15T06:05:13;130.95;;;62.33;;
36415;SDS011;22447;44.530;18.620;2024-01-15T06:07:39;136.20;;;61.20;;
36415;SDS011;22447;44.530;18.620;2024-01-15T06:10:05;152.13;;;69.10;;
36415;SDS011;22447;44.530;18.620;2024-01-15T06:12:31;130.52;;;61.72;;
36415;SDS011;22447;44.530;18.620;2024-01-15T06:14:58;134.40;;;67.72;;
36415;SDS011;22447;44.530;18.620;2024-01-15T06:17:24;142.30;;;72.30;;
36415;SDS011;22447;44.530;18.620;2024-01-15T06:19:50;109.55;;;54.75;;
36415;SDS011;22447;44.530;18.620;2024-01-15T06:22:16;102.82;;;53.00;;
36415;SDS011;22447;44.530;18.620;2024-01-15T06:24:42;112.78;;;54.70;;
36415;SDS011;22447;44.530;18.620;2024-01-15T06:27:08;98.47;;;53.25;;
36415;SDS011;22447;44.530;18.620;2024-01-15T06:29:36;114.97;;;54.50;;
36415;SDS011;22447;44.530;18.620;2024-01-15T06:32:03;103.10;;;52.45;;
36415;SDS011;22447;44.530;18.620;2024-01-15T06:34:29;106.32;;;53.67;;
36415;SDS011;22447;44.530;18.620;2024-01-15T06:36:55;106.82;;;53.22;;
36415;SDS011;22447;44.530;18.620;2024-01-15T06:39:21;131.50;;;61.65;;
36415;SDS011;22447;44.530;18.620;2024-01-15T06:41:47;142.95;;;70.63;;
36415;SDS011;22447;44.530;18.620;2024-01-15T06:44:13;149.32;;;70.90;;
36415;SDS011;22447;44.530;18.620;2024-01-15T06:46:45;156.88;;;73.53;;
36415;SDS011;22447;44.530;18.620;2024-01-15T06:49:11;154.60;;;71.20;;
36415;SDS011;22447;44.530;18.620;2024-01-15T06:51:37;157.02;;;77.32;;
36415;SDS011;22447;44.530;18.620;2024-01-15T06:54:03;145.77;;;72.60;;
36415;SDS011;22447;44.530;18.620;2024-01-15T06:56:29;165.40;;;73.07;;
36415;SDS011;22447;44.530;18.620;2024-01-15T06:58:56;258.35;;;98.03;;
36415;SDS011;22447;44.530;18.620;2024-01-15T07:01:21;208.82;;;91.75;;
36415;SDS011;22447;44.530;18.620;2024-01-15T07:03:47;202.05;;;81.05;;
36415;SDS011;22447;44.530;18.620;2024-01-15T07:06:13;244.65;;;89.45;;
36415;SDS011;22447;44.530;18.620;2024-01-15T07:08:39;285.33;;;100.03;;
36415;SDS011;22447;44.530;18.620;2024-01-15T07:11:05;369.02;;;117.47;;
36415;SDS011;22447;44.530;18.620;2024-01-15T07:13:32;374.52;;;126.18;;
36415;SDS011;22447;44.530;18.620;2024-01-15T07:15:58;317.60;;;120.22;;
36415;SDS011;22447;44.530;18.620;2024-01-15T07:18:24;302.27;;;115.60;;
36415;SDS011;22447;44.530;18.620;2024-01-15T07:20:50;419.52;;;144.10;;
36415;SDS011;22447;44.530;18.620;2024-01-15T07:23:16;473.27;;;157.30;;
36415;SDS011;22447;44.530;18.620;2024-01-15T07:25:42;510.73;;;171.68;;
36415;SDS011;22447;44.530;18.620;2024-01-15T07:28:08;398.70;;;142.35;;
36415;SDS011;22447;44.530;18.620;2024-01-15T07:30:34;177.93;;;82.22;;
36415;SDS011;22447;44.530;18.620;2024-01-15T07:33:00;173.10;;;74.63;;
36415;SDS011;22447;44.530;18.620;2024-01-15T07:35:26;155.38;;;72.90;;
36415;SDS011;22447;44.530;18.620;2024-01-15T07:37:52;158.50;;;74.68;;
36415;SDS011;22447;44.530;18.620;2024-01-15T07:40:18;153.57;;;76.03;;
36415;SDS011;22447;44.530;18.620;2024-01-15T07:42:44;160.05;;;78.22;;
36415;SDS011;22447;44.530;18.620;2024-01-15T07:45:10;229.70;;;105.38;;
36415;SDS011;22447;44.530;18.620;2024-01-15T07:47:36;211.70;;;99.95;;
36415;SDS011;22447;44.530;18.620;2024-01-15T07:50:02;175.88;;;83.53;;
36415;SDS011;22447;44.530;18.620;2024-01-15T07:52:29;193.57;;;91.82;;
36415;SDS011;22447;44.530;18.620;2024-01-15T07:54:56;203.52;;;98.47;;
36415;SDS011;22447;44.530;18.620;2024-01-15T07:57:22;210.98;;;100.03;;
36415;SDS011;22447;44.530;18.620;2024-01-15T07:59:48;222.18;;;103.30;;
36415;SDS011;22447;44.530;18.620;2024-01-15T08:02:14;230.07;;;109.35;;
36415;SDS011;22447;44.530;18.620;2024-01-15T08:04:40;220.15;;;103.13;;
36415;SDS011;22447;44.530;18.620;2024-01-15T08:07:06;217.05;;;104.00;;
36415;SDS011;22447;44.530;18.620;2024-01-15T08:09:35;211.40;;;101.10;;
36415;SDS011;22447;44.530;18.620;2024-01-15T08:12:00;227.48;;;105.88;;
36415;SDS011;22447;44.530;18.620;2024-01-15T08:14:26;224.02;;;111.05;;
36415;SDS011;22447;44.530;18.620;2024-01-15T08:16:52;217.30;;;98.50;;
36415;SDS011;22447;44.530;18.620;2024-01-15T08:19:18;225.93;;;104.93;;
36415;SDS011;22447;44.530;18.620;2024-01-15T08:21:45;283.92;;;127.85;;
36415;SDS011;22447;44.530;18.620;2024-01-15T08:24:11;393.55;;;174.48;;
36415;SDS011;22447;44.530;18.620;2024-01-15T08:26:37;318.52;;;145.32;;
36415;SDS011;22447;44.530;18.620;2024-01-15T08:29:03;331.42;;;155.10;;
36415;SDS011;22447;44.530;18.620;2024-01-15T08:31:28;311.00;;;145.50;;
36415;SDS011;22447;44.530;18.620;2024-01-15T08:33:54;392.83;;;180.15;;
36415;SDS011;22447;44.530;18.620;2024-01-15T08:36:20;396.92;;;184.40;;
36415;SDS011;22447;44.530;18.620;2024-01-15T08:38:46;348.33;;;159.95;;
36415;SDS011;22447;44.530;18.620;2024-01-15T08:41:13;314.98;;;151.85;;
36415;SDS011;22447;44.530;18.620;2024-01-15T08:43:38;370.23;;;172.73;;
36415;SDS011;22447;44.530;18.620;2024-01-15T08:46:04;460.20;;;206.52;;
36415;SDS011;22447;44.530;18.620;2024-01-15T08:48:30;377.02;;;185.75;;
36415;SDS011;22447;44.530;18.620;2024-01-15T08:50:56;379.85;;;186.75;;
36415;SDS011;22447;44.530;18.620;2024-01-15T08:53:22;358.98;;;175.23;;
36415;SDS011;22447;44.530;18.620;2024-01-15T08:55:48;461.42;;;212.38;;
36415;SDS011;22447;44.530;18.620;2024-01-15T08:58:15;488.25;;;230.18;;
36415;SDS011;22447;44.530;18.620;2024-01-15T09:00:40;549.15;;;267.38;;
36415;SDS011;22447;44.530;18.620;2024-01-15T09:03:07;435.25;;;215.40;;
36415;SDS011;22447;44.530;18.620;2024-01-15T09:05:33;372.92;;;193.48;;
36415;SDS011;22447;44.530;18.620;2024-01-15T09:07:59;386.67;;;200.63;;
36415;SDS011;22447;44.530;18.620;2024-01-15T09:10:25;391.60;;;203.55;;
36415;SDS011;22447;44.530;18.620;2024-01-15T09:12:51;369.75;;;194.75;;
36415;SDS011;22447;44.530;18.620;2024-01-15T09:15:17;341.45;;;181.02;;
36415;SDS011;22447;44.530;18.620;2024-01-15T09:17:43;365.52;;;189.50;;
36415;SDS011;22447;44.530;18.620;2024-01-15T09:20:09;415.95;;;213.05;;
36415;SDS011;22447;44.530;18.620;2024-01-15T09:22:37;437.70;;;222.70;;
36415;SDS011;22447;44.530;18.620;2024-01-15T09:25:06;426.63;;;214.13;;
36415;SDS011;22447;44.530;18.620;2024-01-15T09:27:34;422.65;;;214.07;;
36415;SDS011;22447;44.530;18.620;2024-01-15T09:30:01;369.70;;;183.80;;
36415;SDS011;22447;44.530;18.620;2024-01-15T09:32:28;365.90;;;181.13;;
36415;SDS011;22447;44.530;18.620;2024-01-15T09:34:53;371.08;;;185.38;;
36415;SDS011;22447;44.530;18.620;2024-01-15T09:37:20;374.85;;;188.68;;
36415;SDS011;22447;44.530;18.620;2024-01-15T09:39:46;362.30;;;187.02;;
36415;SDS011;22447;44.530;18.620;2024-01-15T09:42:13;370.58;;;184.70;;
36415;SDS011;22447;44.530;18.620;2024-01-15T09:44:40;372.30;;;192.45;;
36415;SDS011;22447;44.530;18.620;2024-01-15T09:47:06;414.95;;;195.75;;
36415;SDS011;22447;44.530;18.620;2024-01-15T09:49:33;398.38;;;193.45;;
36415;SDS011;22447;44.530;18.620;2024-01-15T09:51:58;393.40;;;184.35;;
36415;SDS011;22447;44.530;18.620;2024-01-15T09:54:25;370.13;;;181.43;;
36415;SDS011;22447;44.530;18.620;2024-01-15T09:56:52;369.33;;;182.90;;
36415;SDS011;22447;44.530;18.620;2024-01-15T09:59:18;424.58;;;209.90;;
36415;SDS011;22447;44.530;18.620;2024-01-15T10:01:45;430.80;;;229.80;;
36415;SDS011;22447;44.530;18.620;2024-01-15T10:04:13;431.15;;;221.70;;
36415;SDS011;22447;44.530;18.620;2024-01-15T10:06:41;449.40;;;237.32;;
36415;SDS011;22447;44.530;18.620;2024-01-15T10:09:12;438.48;;;233.02;;
36415;SDS011;22447;44.530;18.620;2024-01-15T10:11:41;385.02;;;200.93;;
36415;SDS011;22447;44.530;18.620;2024-01-15T10:14:11;354.20;;;194.73;;
36415;SDS011;22447;44.530;18.620;2024-01-15T10:16:41;326.02;;;181.32;;
36415;SDS011;22447;44.530;18.620;2024-01-15T10:19:07;264.50;;;136.27;;
36415;SDS011;22447;44.530;18.620;2024-01-15T10:21:33;377.05;;;189.10;;
36415;SDS011;22447;44.530;18.620;2024-01-15T10:24:00;405.92;;;213.68;;
36415;SDS011;22447;44.530;18.620;2024-01-15T10:26:27;388.08;;;205.32;;
36415;SDS011;22447;44.530;18.620;2024-01-15T10:28:54;423.77;;;216.07;;
36415;SDS011;22447;44.530;18.620;2024-01-15T10:31:20;426.75;;;222.00;;
36415;SDS011;22447;44.530;18.620;2024-01-15T10:33:49;458.17;;;233.98;;
36415;SDS011;22447;44.530;18.620;2024-01-15T10:36:16;417.63;;;227.25;;
36415;SDS011;22447;44.530;18.620;2024-01-15T10:38:45;411.33;;;215.88;;
36415;SDS011;22447;44.530;18.620;2024-01-15T10:41:11;380.67;;;205.02;;
36415;SDS011;22447;44.530;18.620;2024-01-15T10:43:38;444.08;;;231.90;;
36415;SDS011;22447;44.530;18.620;2024-01-15T10:46:06;456.92;;;240.13;;
36415;SDS011;22447;44.530;18.620;2024-01-15T10:48:33;515.55;;;274.13;;
36415;SDS011;22447;44.530;18.620;2024-01-15T10:51:01;479.75;;;239.32;;
36415;SDS011;22447;44.530;18.620;2024-01-15T10:53:36;406.88;;;209.23;;
36415;SDS011;22447;44.530;18.620;2024-01-15T10:56:05;422.00;;;218.75;;
36415;SDS011;22447;44.530;18.620;2024-01-15T10:58:32;420.65;;;220.43;;
36415;SDS011;22447;44.530;18.620;2024-01-15T11:01:00;425.67;;;235.50;;
36415;SDS011;22447;44.530;18.620;2024-01-15T11:03:27;418.85;;;227.90;;
36415;SDS011;22447;44.530;18.620;2024-01-15T11:05:54;416.70;;;223.80;;
36415;SDS011;22447;44.530;18.620;2024-01-15T11:08:20;418.17;;;221.13;;
36415;SDS011;22447;44.530;18.620;2024-01-15T11:10:47;398.90;;;220.23;;
36415;SDS011;22447;44.530;18.620;2024-01-15T11:13:50;410.35;;;230.75;;
36415;SDS011;22447;44.530;18.620;2024-01-15T11:16:11;476.80;;;266.98;;
36415;SDS011;22447;44.530;18.620;2024-01-15T11:18:40;481.10;;;248.68;;
36415;SDS011;22447;44.530;18.620;2024-01-15T11:21:26;477.27;;;246.52;;
36415;SDS011;22447;44.530;18.620;2024-01-15T11:24:01;479.65;;;249.13;;
36415;SDS011;22447;44.530;18.620;2024-01-15T11:26:37;423.45;;;236.23;;
36415;SDS011;22447;44.530;18.620;2024-01-15T11:31:59;452.38;;;254.30;;
36415;SDS011;22447;44.530;18.620;2024-01-15T11:37:24;433.50;;;244.63;;
36415;SDS011;22447;44.530;18.620;2024-01-15T11:39:54;482.33;;;258.50;;
36415;SDS011;22447;44.530;18.620;2024-01-15T11:42:25;519.67;;;278.10;;
36415;SDS011;22447;44.530;18.620;2024-01-15T11:44:52;486.75;;;270.92;;
36415;SDS011;22447;44.530;18.620;2024-01-15T11:47:26;528.15;;;291.35;;
36415;SDS011;22447;44.530;18.620;2024-01-15T11:50:21;547.53;;;298.33;;
36415;SDS011;22447;44.530;18.620;2024-01-15T11:53:12;565.60;;;308.77;;
36415;SDS011;22447;44.530;18.620;2024-01-15T11:55:45;531.97;;;293.42;;
36415;SDS011;22447;44.530;18.620;2024-01-15T11:58:11;535.17;;;298.25;;
36415;SDS011;22447;44.530;18.620;2024-01-15T12:00:42;538.70;;;305.73;;
36415;SDS011;22447;44.530;18.620;2024-01-15T12:03:09;497.60;;;277.85;;
36415;SDS011;22447;44.530;18.620;2024-01-15T12:05:36;480.90;;;264.60;;
36415;SDS011;22447;44.530;18.620;2024-01-15T12:08:03;511.40;;;291.40;;
36415;SDS011;22447;44.530;18.620;2024-01-15T12:10:35;547.58;;;300.08;;
36415;SDS011;22447;44.530;18.620;2024-01-15T12:15:38;507.08;;;276.13;;
36415;SDS011;22447;44.530;18.620;2024-01-15T12:18:09;515.47;;;291.02;;
36415;SDS011;22447;44.530;18.620;2024-01-15T12:20:36;520.45;;;291.30;;
36415;SDS011;22447;44.530;18.620;2024-01-15T12:23:03;530.03;;;295.38;;
36415;SDS011;22447;44.530;18.620;2024-01-15T12:25:30;521.55;;;292.02;;
36415;SDS011;22447;44.530;18.620;2024-01-15T12:27:56;522.90;;;290.75;;
36415;SDS011;22447;44.530;18.620;2024-01-15T12:30:22;528.08;;;301.13;;
36415;SDS011;22447;44.530;18.620;2024-01-15T12:32:48;527.33;;;297.35;;
36415;SDS011;22447;44.530;18.620;2024-01-15T12:35:14;520.88;;;295.73;;
36415;SDS011;22447;44.530;18.620;2024-01-15T12:37:40;511.27;;;288.85;;
36415;SDS011;22447;44.530;18.620;2024-01-15T12:40:07;516.78;;;293.40;;
36415;SDS011;22447;44.530;18.620;2024-01-15T12:42:35;505.48;;;293.67;;
36415;SDS011;22447;44.530;18.620;2024-01-15T12:45:02;499.05;;;285.33;;
36415;SDS011;22447;44.530;18.620;2024-01-15T12:47:30;512.10;;;296.20;;
36415;SDS011;22447;44.530;18.620;2024-01-15T12:49:57;480.42;;;281.85;;
36415;SDS011;22447;44.530;18.620;2024-01-15T12:52:26;467.58;;;272.83;;
36415;SDS011;22447;44.530;18.620;2024-01-15T12:54:52;467.63;;;271.63;;
36415;SDS011;22447;44.530;18.620;2024-01-15T12:57:18;487.33;;;285.38;;
36415;SDS011;22447;44.530;18.620;2024-01-15T12:59:44;480.50;;;275.30;;
36415;SDS011;22447;44.530;18.620;2024-01-15T13:02:11;481.25;;;275.83;;
36415;SDS011;22447;44.530;18.620;2024-01-15T13:04:37;475.40;;;282.95;;
36415;SDS011;22447;44.530;18.620;2024-01-15T13:07:04;492.42;;;285.65;;
36415;SDS011;22447;44.530;18.620;2024-01-15T13:09:33;492.23;;;288.65;;
36415;SDS011;22447;44.530;18.620;2024-01-15T13:12:00;475.98;;;279.45;;
36415;SDS011;22447;44.530;18.620;2024-01-15T13:14:27;485.60;;;290.38;;
36415;SDS011;22447;44.530;18.620;2024-01-15T13:16:53;509.45;;;301.20;;
36415;SDS011;22447;44.530;18.620;2024-01-15T13:19:20;502.13;;;295.42;;
36415;SDS011;22447;44.530;18.620;2024-01-15T13:21:48;495.85;;;294.92;;
36415;SDS011;22447;44.530;18.620;2024-01-15T13:24:16;468.35;;;274.23;;
36415;SDS011;22447;44.530;18.620;2024-01-15T13:26:42;501.88;;;290.25;;
36415;SDS011;22447;44.530;18.620;2024-01-15T13:29:08;474.52;;;279.05;;
36415;SDS011;22447;44.530;18.620;2024-01-15T13:31:34;545.20;;;313.33;;
36415;SDS011;22447;44.530;18.620;2024-01-15T13:34:01;496.30;;;290.40;;
36415;SDS011;22447;44.530;18.620;2024-01-15T13:36:28;493.40;;;292.02;;
36415;SDS011;22447;44.530;18.620;2024-01-15T13:38:54;528.83;;;307.63;;
36415;SDS011;22447;44.530;18.620;2024-01-15T13:41:20;523.47;;;310.65;;
36415;SDS011;22447;44.530;18.620;2024-01-15T13:43:53;521.40;;;312.55;;
36415;SDS011;22447;44.530;18.620;2024-01-15T13:46:24;531.30;;;314.85;;
36415;SDS011;22447;44.530;18.620;2024-01-15T13:48:54;576.13;;;344.23;;
36415;SDS011;22447;44.530;18.620;2024-01-15T13:51:23;542.22;;;326.05;;
36415;SDS011;22447;44.530;18.620;2024-01-15T13:53:50;535.83;;;326.67;;
36415;SDS011;22447;44.530;18.620;2024-01-15T13:56:16;526.00;;;318.05;;